createdAt,value
2022-08-30T00:01:27.135Z,19.90
2022-08-30T00:03:56.722Z,19.90
2022-08-30T00:06:33.387Z,19.90
2022-08-30T00:09:02.976Z,19.90
2022-08-30T00:11:31.720Z,19.80
2022-08-30T00:14:00.511Z,19.90
2022-08-30T00:16:36.865Z,19.80
2022-08-30T00:19:07.453Z,19.90
2022-08-30T00:21:41.860Z,19.90
2022-08-30T00:24:10.755Z,20.00
2022-08-30T00:26:39.510Z,20.00
2022-08-30T00:29:08.437Z,20.00
2022-08-30T00:31:37.736Z,20.00
2022-08-30T00:34:07.534Z,20.20
2022-08-30T00:36:38.387Z,20.00
2022-08-30T00:39:07.550Z,19.90
2022-08-30T00:41:37.509Z,19.80
2022-08-30T00:44:08.631Z,19.80
2022-08-30T00:46:37.813Z,19.80
2022-08-30T00:49:10.714Z,19.80
2022-08-30T00:51:42.566Z,19.80
2022-08-30T00:54:12.244Z,19.80
2022-08-30T00:56:41.391Z,19.80
2022-08-30T00:59:10.825Z,19.70
2022-08-30T01:01:40.216Z,19.70
2022-08-30T01:04:10.726Z,19.70
2022-08-30T01:06:42.151Z,19.70
2022-08-30T01:09:12.873Z,19.70
2022-08-30T01:11:43.993Z,19.70
2022-08-30T01:14:13.888Z,19.60
2022-08-30T01:16:44.821Z,19.50
2022-08-30T01:19:34.713Z,19.50
2022-08-30T01:22:09.400Z,19.50
2022-08-30T01:24:40.003Z,19.60
2022-08-30T01:27:09.252Z,19.50
2022-08-30T01:29:38.249Z,19.50
2022-08-30T01:32:08.215Z,19.60
2022-08-30T01:34:36.739Z,19.50
2022-08-30T01:37:06.115Z,19.50
2022-08-30T01:39:35.518Z,19.60
2022-08-30T01:42:07.495Z,19.60
2022-08-30T01:44:38.841Z,19.70
2022-08-30T01:47:10.172Z,19.60
2022-08-30T01:49:44.858Z,19.40
2022-08-30T01:52:14.472Z,19.50
2022-08-30T01:54:45.321Z,19.50
2022-08-30T01:57:21.996Z,19.50
2022-08-30T01:59:51.373Z,19.50
2022-08-30T02:02:23.653Z,19.40
2022-08-30T02:04:53.222Z,19.50
2022-08-30T02:07:22.289Z,19.50
2022-08-30T02:09:59.947Z,19.40
2022-08-30T02:12:30.632Z,19.50
2022-08-30T02:15:02.109Z,19.40
2022-08-30T02:17:31.043Z,19.40
2022-08-30T02:20:06.253Z,19.40
2022-08-30T02:22:35.190Z,19.30
2022-08-30T02:25:05.149Z,19.30
2022-08-30T02:27:35.978Z,19.40
2022-08-30T02:30:07.168Z,19.30
2022-08-30T02:32:37.180Z,19.20
2022-08-30T02:35:07.132Z,19.20
2022-08-30T02:37:36.018Z,19.20
2022-08-30T02:40:06.587Z,19.10
2022-08-30T02:42:36.817Z,19.20
2022-08-30T02:45:06.483Z,19.10
2022-08-30T02:47:35.453Z,19.10
2022-08-30T02:50:05.192Z,19.10
2022-08-30T02:52:34.217Z,19.10
2022-08-30T02:55:04.267Z,19.10
2022-08-30T02:57:32.847Z,19.00
2022-08-30T03:00:03.597Z,19.00
2022-08-30T03:02:32.506Z,19.10
2022-08-30T03:05:01.601Z,19.20
2022-08-30T03:07:31.766Z,19.20
2022-08-30T03:10:00.628Z,19.10
2022-08-30T03:12:29.479Z,19.10
2022-08-30T03:15:00.716Z,19.10
2022-08-30T03:17:31.425Z,19.10
2022-08-30T03:20:01.738Z,18.90
2022-08-30T03:22:31.075Z,19.10
2022-08-30T03:25:02.012Z,19.10
2022-08-30T03:27:31.793Z,19.00
2022-08-30T03:30:00.841Z,19.10
2022-08-30T03:32:31.420Z,18.90
2022-08-30T03:35:01.027Z,18.90
2022-08-30T03:37:29.917Z,18.90
2022-08-30T03:39:58.765Z,18.90
2022-08-30T03:42:28.107Z,18.90
2022-08-30T03:44:57.704Z,18.70
2022-08-30T03:47:28.089Z,18.70
2022-08-30T03:49:58.645Z,18.50
2022-08-30T03:52:27.933Z,18.50
2022-08-30T03:54:56.863Z,18.50
2022-08-30T03:57:27.836Z,18.50
2022-08-30T03:59:57.764Z,18.50
2022-08-30T04:02:27.745Z,18.60
2022-08-30T04:04:58.930Z,18.60
2022-08-30T04:07:28.164Z,18.70
2022-08-30T04:09:57.300Z,18.80
2022-08-30T04:12:26.139Z,18.70
2022-08-30T04:14:55.366Z,18.70
2022-08-30T04:17:25.911Z,18.70
2022-08-30T04:19:55.035Z,18.60
2022-08-30T04:22:25.521Z,18.50
2022-08-30T04:24:54.456Z,18.40
2022-08-30T04:27:23.788Z,18.40
2022-08-30T04:29:54.421Z,18.00
2022-08-30T04:32:25.197Z,17.80
2022-08-30T04:34:59.912Z,17.70
2022-08-30T04:37:31.167Z,17.50
2022-08-30T04:40:01.697Z,17.50
2022-08-30T04:42:32.770Z,17.40
2022-08-30T04:45:05.164Z,17.40
2022-08-30T04:47:36.249Z,17.50
2022-08-30T04:50:05.720Z,17.40
2022-08-30T04:52:36.740Z,17.40
2022-08-30T04:55:06.348Z,17.40
2022-08-30T04:57:36.790Z,17.30
2022-08-30T05:00:08.779Z,17.40
2022-08-30T05:02:37.840Z,17.40
2022-08-30T05:05:25.111Z,17.40
2022-08-30T05:07:56.074Z,17.40
2022-08-30T05:10:25.059Z,17.40
2022-08-30T05:12:54.443Z,17.50
2022-08-30T05:15:24.468Z,17.50
2022-08-30T05:17:53.107Z,17.40
2022-08-30T05:20:21.988Z,17.40
2022-08-30T05:22:54.016Z,17.50
2022-08-30T05:25:27.320Z,17.60
2022-08-30T05:27:56.633Z,17.50
2022-08-30T05:30:28.076Z,17.60
2022-08-30T05:32:57.978Z,17.50
2022-08-30T05:35:26.932Z,18.30
2022-08-30T05:37:55.919Z,18.60
2022-08-30T05:40:26.985Z,18.70
2022-08-30T05:42:58.430Z,19.20
2022-08-30T05:45:27.154Z,19.40
2022-08-30T05:47:55.851Z,19.50
2022-08-30T05:50:24.748Z,19.90
2022-08-30T05:52:54.873Z,19.90
2022-08-30T05:55:23.881Z,19.90
2022-08-30T05:57:54.803Z,20.00
2022-08-30T06:00:24.746Z,20.50
2022-08-30T06:02:56.112Z,21.20
2022-08-30T06:05:25.303Z,22.40
2022-08-30T06:07:54.745Z,23.10
2022-08-30T06:10:24.104Z,23.30
2022-08-30T06:12:54.535Z,23.00
2022-08-30T06:15:25.991Z,22.60
2022-08-30T06:17:55.304Z,22.10
2022-08-30T06:20:25.345Z,21.50
2022-08-30T06:22:54.245Z,21.40
2022-08-30T06:25:23.694Z,21.40
2022-08-30T06:27:56.604Z,21.20
2022-08-30T06:30:25.621Z,21.30
2022-08-30T06:32:56.834Z,22.00
2022-08-30T06:35:26.495Z,23.10
2022-08-30T06:37:55.227Z,23.30
2022-08-30T06:40:24.750Z,24.00
2022-08-30T06:42:55.561Z,24.60
2022-08-30T06:45:24.585Z,25.60
2022-08-30T06:47:53.444Z,26.10
2022-08-30T06:50:24.987Z,26.50
2022-08-30T06:52:54.131Z,27.30
2022-08-30T06:55:26.105Z,27.80
2022-08-30T06:57:56.307Z,27.90
2022-08-30T07:00:25.119Z,28.10
2022-08-30T07:02:54.521Z,28.20
2022-08-30T07:05:23.904Z,28.50
2022-08-30T07:07:54.614Z,28.00
2022-08-30T07:10:23.510Z,28.20
2022-08-30T07:12:53.021Z,28.40
2022-08-30T07:15:24.201Z,28.10
2022-08-30T07:18:10.544Z,28.10
2022-08-30T07:20:40.935Z,28.10
2022-08-30T07:23:10.643Z,27.60
2022-08-30T07:25:40.702Z,28.00
2022-08-30T07:28:10.813Z,28.50
2022-08-30T07:30:42.816Z,29.00
2022-08-30T07:33:12.655Z,29.00
2022-08-30T07:35:41.554Z,28.70
2022-08-30T07:38:14.984Z,28.40
2022-08-30T07:40:43.791Z,27.80
2022-08-30T07:43:13.102Z,28.00
2022-08-30T07:45:43.490Z,28.00
2022-08-30T07:48:13.375Z,28.50
2022-08-30T07:50:46.344Z,29.10
2022-08-30T07:53:16.683Z,28.80
2022-08-30T07:55:45.872Z,27.90
2022-08-30T07:58:15.364Z,28.00
2022-08-30T08:00:45.804Z,28.00
2022-08-30T08:03:15.179Z,28.20
2022-08-30T08:05:46.834Z,27.80
2022-08-30T08:08:16.299Z,27.80
2022-08-30T08:10:45.568Z,27.80
2022-08-30T08:13:15.293Z,28.60
2022-08-30T08:15:46.166Z,28.80
2022-08-30T08:18:15.418Z,27.90
2022-08-30T08:20:44.647Z,26.90
2022-08-30T08:23:13.418Z,26.60
2022-08-30T08:25:43.823Z,27.00
2022-08-30T08:28:13.472Z,27.60
2022-08-30T08:30:47.626Z,28.20
2022-08-30T08:33:19.755Z,28.60
2022-08-30T08:35:50.101Z,29.00
2022-08-30T08:38:19.425Z,29.00
2022-08-30T08:41:05.675Z,29.50
2022-08-30T08:43:39.075Z,29.20
2022-08-30T08:46:16.209Z,29.10
2022-08-30T08:49:00.014Z,28.70
2022-08-30T08:51:50.572Z,28.60
2022-08-30T08:54:28.331Z,28.40
2022-08-30T08:56:57.550Z,27.80
2022-08-30T08:59:27.313Z,27.40
2022-08-30T09:02:01.195Z,27.40
2022-08-30T09:04:37.969Z,27.70
2022-08-30T09:07:13.121Z,28.00
2022-08-30T09:09:43.079Z,28.70
2022-08-30T09:12:13.590Z,29.20
2022-08-30T09:14:46.586Z,29.70
2022-08-30T09:17:19.419Z,29.80
2022-08-30T09:20:00.393Z,29.60
2022-08-30T09:22:34.576Z,28.80
2022-08-30T09:25:07.490Z,28.10
2022-08-30T09:27:38.738Z,27.90
2022-08-30T09:30:14.176Z,28.40
2022-08-30T09:32:46.016Z,28.70
2022-08-30T09:35:22.883Z,29.00
2022-08-30T09:37:56.901Z,28.50
2022-08-30T09:40:32.951Z,28.30
2022-08-30T09:43:06.806Z,28.20
2022-08-30T09:45:38.871Z,28.60
2022-08-30T09:48:35.270Z,29.00
2022-08-30T09:51:36.184Z,28.50
2022-08-30T09:54:17.828Z,27.50
2022-08-30T09:56:57.129Z,27.60
2022-08-30T09:59:41.737Z,27.10
2022-08-30T10:02:34.672Z,26.70
2022-08-30T10:05:10.161Z,26.00
2022-08-30T10:07:47.812Z,26.50
2022-08-30T10:10:23.546Z,26.90
2022-08-30T10:13:03.905Z,27.00
2022-08-30T10:15:36.661Z,27.30
2022-08-30T10:18:14.795Z,26.70
2022-08-30T10:20:53.985Z,26.70
2022-08-30T10:23:29.926Z,26.80
2022-08-30T10:26:07.955Z,26.80
2022-08-30T10:28:44.050Z,27.10
2022-08-30T10:31:41.075Z,27.40
2022-08-30T10:34:18.304Z,28.10
2022-08-30T10:36:51.898Z,28.10
2022-08-30T10:39:26.377Z,28.30
2022-08-30T10:42:12.705Z,28.30
2022-08-30T10:44:46.924Z,27.60
2022-08-30T10:47:25.837Z,27.30
2022-08-30T10:50:03.738Z,27.70
2022-08-30T10:52:37.837Z,27.20
2022-08-30T10:55:17.247Z,27.40
2022-08-30T10:57:47.018Z,27.00
2022-08-30T11:00:24.872Z,26.20
2022-08-30T11:03:21.493Z,26.30
2022-08-30T11:06:16.846Z,26.80
2022-08-30T11:09:10.278Z,26.80
2022-08-30T11:11:58.430Z,27.40
2022-08-30T11:14:28.084Z,27.50
2022-08-30T11:17:00.824Z,27.70
2022-08-30T11:19:38.949Z,27.50
2022-08-30T11:22:14.908Z,27.30
2022-08-30T11:25:09.768Z,27.30
2022-08-30T11:27:51.476Z,27.20
2022-08-30T11:30:54.911Z,27.50
2022-08-30T11:33:46.194Z,27.80
2022-08-30T11:37:09.666Z,27.40
2022-08-30T11:40:20.774Z,27.30
2022-08-30T11:42:53.588Z,26.40
2022-08-30T11:45:44.717Z,27.00
2022-08-30T11:48:53.856Z,27.50
2022-08-30T11:52:08.377Z,27.40
2022-08-30T11:54:58.837Z,27.50
2022-08-30T11:57:34.882Z,27.60
2022-08-30T12:00:10.363Z,27.40
2022-08-30T12:02:49.398Z,27.20
2022-08-30T12:05:59.692Z,27.20
2022-08-30T12:09:02.694Z,27.60
2022-08-30T12:12:06.253Z,27.50
2022-08-30T12:14:52.099Z,27.50
2022-08-30T12:17:47.223Z,27.50
2022-08-30T12:20:29.535Z,27.60
2022-08-30T12:23:18.404Z,28.00
2022-08-30T12:25:47.860Z,27.40
2022-08-30T12:28:23.454Z,27.50
2022-08-30T12:30:54.572Z,27.30
2022-08-30T12:33:41.368Z,27.50
2022-08-30T12:36:15.013Z,27.70
2022-08-30T12:38:49.963Z,27.90
2022-08-30T12:41:30.093Z,28.10
2022-08-30T12:44:01.039Z,28.10
2022-08-30T12:46:30.816Z,27.90
2022-08-30T12:49:01.856Z,27.50
2022-08-30T12:51:44.740Z,27.80
2022-08-30T12:54:21.933Z,27.70
2022-08-30T12:56:55.737Z,27.20
2022-08-30T13:00:40.215Z,27.20
2022-08-30T13:03:31.656Z,27.00
2022-08-30T13:06:03.013Z,27.10
2022-08-30T13:08:36.659Z,27.20
2022-08-30T13:11:10.010Z,26.90
2022-08-30T13:13:44.443Z,27.00
2022-08-30T13:16:26.377Z,27.00
2022-08-30T13:18:57.680Z,27.00
2022-08-30T13:21:31.209Z,27.10
2022-08-30T13:24:02.561Z,27.50
2022-08-30T13:26:34.758Z,27.30
2022-08-30T13:29:10.335Z,27.40
2022-08-30T13:31:39.742Z,27.50
2022-08-30T13:34:09.572Z,26.70
2022-08-30T13:36:46.945Z,26.40
2022-08-30T13:39:16.961Z,26.70
2022-08-30T13:41:50.668Z,26.90
2022-08-30T13:44:21.402Z,26.90
2022-08-30T13:46:55.268Z,27.10
2022-08-30T13:49:45.630Z,27.30
2022-08-30T13:52:21.463Z,27.40
2022-08-30T13:54:52.092Z,27.60
2022-08-30T14:00:19.953Z,27.40
2022-08-30T14:02:54.753Z,27.10
2022-08-30T14:05:47.696Z,27.10
2022-08-30T14:11:07.989Z,26.90
2022-08-30T14:13:37.542Z,26.90
2022-08-30T14:19:01.567Z,26.80
2022-08-30T14:21:31.685Z,26.80
2022-08-30T14:24:02.552Z,26.80
2022-08-30T14:26:35.016Z,26.70
2022-08-30T14:29:05.260Z,26.50
2022-08-30T14:31:39.388Z,26.50
2022-08-30T14:34:10.938Z,26.40
2022-08-30T14:36:43.369Z,26.60
2022-08-30T14:39:18.077Z,26.60
2022-08-30T14:41:49.983Z,26.60
2022-08-30T14:44:20.370Z,26.60
2022-08-30T14:46:51.054Z,26.60
2022-08-30T14:49:21.596Z,26.50
2022-08-30T14:51:52.406Z,26.30
2022-08-30T14:54:25.387Z,26.30
2022-08-30T14:56:54.820Z,26.40
2022-08-30T14:59:24.846Z,26.40
2022-08-30T15:01:53.952Z,26.40
2022-08-30T15:04:23.760Z,26.40
2022-08-30T15:06:53.195Z,26.40
2022-08-30T15:09:25.253Z,26.30
2022-08-30T15:11:54.981Z,26.30
2022-08-30T15:14:25.349Z,26.20
2022-08-30T15:16:58.682Z,26.20
2022-08-30T15:19:28.877Z,26.10
2022-08-30T15:22:03.393Z,26.00
2022-08-30T15:24:35.425Z,25.90
2022-08-30T15:27:06.120Z,25.90
2022-08-30T15:29:38.266Z,25.90
2022-08-30T15:32:07.568Z,26.00
2022-08-30T15:34:37.232Z,26.00
2022-08-30T15:37:07.819Z,26.00
2022-08-30T15:39:38.759Z,26.20
2022-08-30T15:42:09.934Z,26.30
2022-08-30T15:44:39.226Z,26.30
2022-08-30T15:47:08.482Z,26.30
2022-08-30T15:49:37.552Z,25.90
2022-08-30T15:52:08.088Z,26.30
2022-08-30T15:54:38.834Z,26.20
2022-08-30T15:57:07.831Z,26.10
2022-08-30T15:59:37.169Z,26.10
2022-08-30T16:02:06.324Z,26.10
2022-08-30T16:04:35.294Z,26.10
2022-08-30T16:07:04.846Z,26.00
2022-08-30T16:09:41.482Z,25.90
2022-08-30T16:12:11.515Z,25.80
2022-08-30T16:14:40.903Z,25.80
2022-08-30T16:17:11.189Z,25.80
2022-08-30T16:19:40.267Z,25.80
2022-08-30T16:22:11.607Z,25.80
2022-08-30T16:24:42.567Z,25.70
2022-08-30T16:27:17.969Z,25.30
2022-08-30T16:29:50.363Z,25.60
2022-08-30T16:32:20.918Z,25.50
2022-08-30T16:34:49.948Z,25.60
2022-08-30T16:37:19.620Z,25.50
2022-08-30T16:39:51.233Z,25.50
2022-08-30T16:42:20.848Z,25.50
2022-08-30T16:44:50.148Z,25.50
2022-08-30T16:47:19.432Z,25.50
2022-08-30T16:49:49.131Z,25.40
2022-08-30T16:52:19.407Z,25.30
2022-08-30T16:54:52.041Z,25.20
2022-08-30T16:57:21.647Z,25.10
2022-08-30T16:59:52.623Z,25.00
2022-08-30T17:02:21.667Z,24.90
2022-08-30T17:04:53.100Z,25.00
2022-08-30T17:07:23.266Z,24.90
2022-08-30T17:09:54.271Z,24.90
2022-08-30T17:12:23.948Z,24.80
2022-08-30T17:14:53.130Z,24.70
2022-08-30T17:17:22.963Z,24.60
2022-08-30T17:19:53.562Z,24.60
2022-08-30T17:22:22.308Z,24.60
2022-08-30T17:24:54.354Z,24.40
2022-08-30T17:27:23.350Z,24.50
2022-08-30T17:29:52.564Z,24.60
2022-08-30T17:32:21.576Z,24.20
2022-08-30T17:34:53.536Z,24.60
2022-08-30T17:37:22.578Z,24.60
2022-08-30T17:39:54.924Z,24.60
2022-08-30T17:42:24.097Z,24.60
2022-08-30T17:45:03.588Z,24.60
2022-08-30T17:47:36.616Z,24.60
2022-08-30T17:50:07.086Z,24.50
2022-08-30T17:52:38.470Z,24.50
2022-08-30T17:55:11.624Z,24.40
2022-08-30T17:57:42.294Z,24.40
2022-08-30T18:00:15.890Z,24.40
2022-08-30T18:02:46.025Z,24.30
2022-08-30T18:05:15.038Z,24.30
2022-08-30T18:07:44.006Z,24.30
2022-08-30T18:10:14.779Z,24.20
2022-08-30T18:12:43.780Z,24.10
2022-08-30T18:15:16.042Z,24.20
2022-08-30T18:17:47.997Z,24.20
2022-08-30T18:20:17.967Z,24.10
2022-08-30T18:22:47.752Z,24.10
2022-08-30T18:25:20.726Z,24.00
2022-08-30T18:27:58.395Z,23.90
2022-08-30T18:30:34.711Z,23.90
2022-08-30T18:33:09.615Z,23.70
2022-08-30T18:35:44.122Z,23.80
2022-08-30T18:38:16.343Z,23.90
2022-08-30T18:40:49.272Z,23.80
2022-08-30T18:43:18.599Z,23.70
2022-08-30T18:45:53.826Z,23.60
2022-08-30T18:48:23.092Z,23.50
2022-08-30T18:50:56.319Z,23.50
2022-08-30T18:53:29.236Z,23.40
2022-08-30T18:56:00.662Z,23.40
2022-08-30T18:58:32.281Z,23.30
2022-08-30T19:01:03.451Z,23.20
2022-08-30T19:03:32.943Z,23.20
2022-08-30T19:06:05.388Z,23.10
2022-08-30T19:08:36.928Z,23.10
2022-08-30T19:11:09.225Z,23.10
2022-08-30T19:13:39.128Z,23.20
2022-08-30T19:16:12.188Z,23.10
2022-08-30T19:18:43.060Z,23.20
2022-08-30T19:21:14.231Z,23.20
2022-08-30T19:23:43.343Z,23.20
2022-08-30T19:26:14.969Z,23.10
2022-08-30T19:28:43.893Z,23.10
2022-08-30T19:31:16.258Z,23.00
2022-08-30T19:33:49.159Z,23.00
2022-08-30T19:36:20.197Z,22.90
2022-08-30T19:38:51.856Z,23.00
2022-08-30T19:41:26.256Z,22.80
2022-08-30T19:43:55.305Z,22.80
2022-08-30T19:46:25.828Z,22.80
2022-08-30T19:48:57.340Z,22.70
2022-08-30T19:51:26.563Z,22.60
2022-08-30T19:53:56.398Z,22.60
2022-08-30T19:56:30.601Z,22.50
2022-08-30T19:58:59.465Z,22.50
2022-08-30T20:01:34.213Z,22.50
2022-08-30T20:04:03.781Z,22.50
2022-08-30T20:06:34.852Z,22.30
2022-08-30T20:09:05.198Z,22.40
2022-08-30T20:11:42.787Z,22.30
2022-08-30T20:14:13.611Z,22.30
2022-08-30T20:16:47.727Z,22.30
2022-08-30T20:19:20.375Z,22.30
2022-08-30T20:21:52.499Z,22.30
2022-08-30T20:24:25.482Z,22.40
2022-08-30T20:26:57.795Z,22.50
2022-08-30T20:29:29.408Z,22.60
2022-08-30T20:31:58.988Z,22.50
2022-08-30T20:34:28.856Z,22.50
2022-08-30T20:37:00.217Z,22.40
2022-08-30T20:39:29.354Z,22.50
2022-08-30T20:42:00.599Z,22.50
2022-08-30T20:44:30.176Z,22.50
2022-08-30T20:47:00.897Z,22.50
2022-08-30T20:49:30.038Z,22.50
2022-08-30T20:52:01.299Z,22.50
2022-08-30T20:54:34.158Z,22.60
2022-08-30T20:57:05.568Z,22.60
2022-08-30T20:59:36.731Z,22.50
2022-08-30T21:02:08.782Z,22.40
2022-08-30T21:04:40.477Z,22.40
2022-08-30T21:07:44.583Z,22.40
2022-08-30T21:10:22.594Z,22.30
2022-08-30T21:12:54.481Z,22.30
2022-08-30T21:15:37.745Z,22.40
2022-08-30T21:18:13.927Z,22.20
2022-08-30T21:20:43.105Z,22.10
2022-08-30T21:23:13.121Z,22.00
2022-08-30T21:25:45.712Z,21.60
2022-08-30T21:28:17.124Z,22.00
2022-08-30T21:30:46.846Z,22.10
2022-08-30T21:33:15.508Z,22.10
2022-08-30T21:36:04.931Z,22.10
2022-08-30T21:38:33.717Z,22.10
2022-08-30T21:41:03.753Z,22.10
2022-08-30T21:43:36.349Z,22.10
2022-08-30T21:46:09.602Z,22.10
2022-08-30T21:48:39.076Z,22.00
2022-08-30T21:51:09.033Z,22.00
2022-08-30T21:53:38.871Z,21.90
2022-08-30T21:56:13.473Z,21.90
2022-08-30T21:59:02.700Z,21.90
2022-08-30T22:01:32.345Z,21.90
2022-08-30T22:04:03.876Z,21.90
2022-08-30T22:06:35.010Z,21.70
2022-08-30T22:09:10.174Z,21.80
2022-08-30T22:11:39.679Z,21.80
2022-08-30T22:14:17.228Z,21.80
2022-08-30T22:16:51.983Z,21.80
2022-08-30T22:19:26.223Z,21.90
2022-08-30T22:22:01.204Z,21.90
2022-08-30T22:24:32.657Z,21.80
2022-08-30T22:27:02.680Z,21.80
2022-08-30T22:29:33.613Z,21.70
2022-08-30T22:32:02.931Z,21.70
2022-08-30T22:34:33.319Z,21.50
2022-08-30T22:37:08.023Z,21.40
2022-08-30T22:39:39.590Z,21.40
2022-08-30T22:42:18.379Z,21.50
2022-08-30T22:44:50.090Z,21.40
2022-08-30T22:47:19.168Z,21.50
2022-08-30T22:49:50.379Z,21.50
2022-08-30T22:52:25.210Z,21.40
2022-08-30T22:54:54.316Z,21.40
2022-08-30T22:57:23.652Z,21.40
2022-08-30T22:59:54.161Z,21.40
2022-08-30T23:02:23.179Z,21.40
2022-08-30T23:04:52.119Z,21.40
2022-08-30T23:07:30.098Z,21.40
2022-08-30T23:10:01.718Z,21.40
2022-08-30T23:12:30.760Z,21.40
2022-08-30T23:15:01.273Z,21.30
2022-08-30T23:17:39.479Z,21.20
2022-08-30T23:20:10.014Z,21.30
2022-08-30T23:22:39.337Z,21.20
2022-08-30T23:25:41.280Z,21.20
2022-08-30T23:28:28.237Z,21.10
2022-08-30T23:31:18.582Z,21.10
2022-08-30T23:34:44.679Z,21.00
2022-08-30T23:37:33.216Z,20.80
2022-08-30T23:43:02.937Z,20.60
2022-08-30T23:45:54.603Z,20.60
2022-08-30T23:48:50.900Z,20.50
2022-08-30T23:51:38.212Z,20.50
2022-08-30T23:54:25.813Z,20.50
2022-08-30T23:57:12.122Z,20.40
2022-08-30T23:59:59.417Z,20.40
